sensor_id;sensor_type;location;lat;lon;timestamp;temperature;humidity
28654;DHT22;24320;56.980;24.336;2022-09-12T00:00:13;10.20;99.90
28654;DHT22;24320;56.980;24.336;2022-09-12T00:02:41;10.10;99.90
28654;DHT22;24320;56.980;24.336;2022-09-12T00:05:11;10.20;99.90
28654;DHT22;24320;56.980;24.336;2022-09-12T00:07:38;10.20;99.90
28654;DHT22;24320;56.980;24.336;2022-09-12T00:10:05;10.20;99.90
28654;DHT22;24320;56.980;24.336;2022-09-12T00:12:33;10.20;99.90
28654;DHT22;24320;56.980;24.336;2022-09-12T00:15:00;10.10;99.90
28654;DHT22;24320;56.980;24.336;2022-09-12T00:17:27;10.10;99.90
28654;DHT22;24320;56.980;24.336;2022-09-12T00:19:54;10.10;99.90
28654;DHT22;24320;56.980;24.336;2022-09-12T00:22:21;10.10;99.90
28654;DHT22;24320;56.980;24.336;2022-09-12T00:24:48;10.10;99.90
28654;DHT22;24320;56.980;24.336;2022-09-12T00:27:15;10.20;99.90
28654;DHT22;24320;56.980;24.336;2022-09-12T00:29:42;10.10;99.90
28654;DHT22;24320;56.980;24.336;2022-09-12T00:32:09;10.10;99.90
28654;DHT22;24320;56.980;24.336;2022-09-12T00:34:36;10.10;99.90
28654;DHT22;24320;56.980;24.336;2022-09-12T00:37:03;10.10;99.90
28654;DHT22;24320;56.980;24.336;2022-09-12T00:39:30;10.10;99.90
28654;DHT22;24320;56.980;24.336;2022-09-12T00:41:57;10.10;99.90
28654;DHT22;24320;56.980;24.336;2022-09-12T00:50:07;10.10;99.90
28654;DHT22;24320;56.980;24.336;2022-09-12T00:52:49;10.10;99.90
28654;DHT22;24320;56.980;24.336;2022-09-12T00:55:34;10.20;99.90
28654;DHT22;24320;56.980;24.336;2022-09-12T00:58:16;10.20;99.90
28654;DHT22;24320;56.980;24.336;2022-09-12T01:00:45;10.20;99.90
28654;DHT22;24320;56.980;24.336;2022-09-12T01:03:16;10.20;99.90
28654;DHT22;24320;56.980;24.336;2022-09-12T01:06:23;10.10;99.90
28654;DHT22;24320;56.980;24.336;2022-09-12T01:08:51;10.10;99.90
28654;DHT22;24320;56.980;24.336;2022-09-12T01:11:20;10.10;99.90
28654;DHT22;24320;56.980;24.336;2022-09-12T01:13:49;10.20;99.90
28654;DHT22;24320;56.980;24.336;2022-09-12T01:16:16;10.20;99.90
28654;DHT22;24320;56.980;24.336;2022-09-12T01:18:56;10.10;99.90
28654;DHT22;24320;56.980;24.336;2022-09-12T01:21:47;10.20;99.90
28654;DHT22;24320;56.980;24.336;2022-09-12T01:25:07;10.20;99.90
28654;DHT22;24320;56.980;24.336;2022-09-12T01:35:43;10.20;99.90
28654;DHT22;24320;56.980;24.336;2022-09-12T01:41:08;10.20;99.90
28654;DHT22;24320;56.980;24.336;2022-09-12T01:49:35;10.20;99.90
28654;DHT22;24320;56.980;24.336;2022-09-12T01:54:52;10.20;99.90
28654;DHT22;24320;56.980;24.336;2022-09-12T01:57:32;10.20;99.90
28654;DHT22;24320;56.980;24.336;2022-09-12T02:00:06;10.20;99.90
28654;DHT22;24320;56.980;24.336;2022-09-12T02:02:48;10.20;99.90
28654;DHT22;24320;56.980;24.336;2022-09-12T02:05:36;10.20;99.90
28654;DHT22;24320;56.980;24.336;2022-09-12T02:08:18;10.20;99.90
28654;DHT22;24320;56.980;24.336;2022-09-12T02:11:07;10.20;99.90
28654;DHT22;24320;56.980;24.336;2022-09-12T02:16:10;10.20;99.90
28654;DHT22;24320;56.980;24.336;2022-09-12T02:18:44;10.20;99.90
28654;DHT22;24320;56.980;24.336;2022-09-12T02:21:12;10.20;99.90
28654;DHT22;24320;56.980;24.336;2022-09-12T02:23:44;10.20;99.90
28654;DHT22;24320;56.980;24.336;2022-09-12T02:26:19;10.20;99.90
28654;DHT22;24320;56.980;24.336;2022-09-12T02:28:46;10.20;99.90
28654;DHT22;24320;56.980;24.336;2022-09-12T02:31:37;10.20;99.90
28654;DHT22;24320;56.980;24.336;2022-09-12T02:39:20;10.20;99.90
28654;DHT22;24320;56.980;24.336;2022-09-12T02:41:50;10.20;99.90
28654;DHT22;24320;56.980;24.336;2022-09-12T02:44:17;10.20;99.90
28654;DHT22;24320;56.980;24.336;2022-09-12T02:46:52;10.30;99.90
28654;DHT22;24320;56.980;24.336;2022-09-12T02:49:20;10.20;99.90
28654;DHT22;24320;56.980;24.336;2022-09-12T02:51:48;10.30;99.90
28654;DHT22;24320;56.980;24.336;2022-09-12T02:54:17;10.20;99.90
28654;DHT22;24320;56.980;24.336;2022-09-12T02:56:44;10.20;99.90
28654;DHT22;24320;56.980;24.336;2022-09-12T02:59:14;10.20;99.90
28654;DHT22;24320;56.980;24.336;2022-09-12T03:04:23;10.20;99.90
28654;DHT22;24320;56.980;24.336;2022-09-12T03:09:46;10.30;99.90
28654;DHT22;24320;56.980;24.336;2022-09-12T03:15:08;10.30;99.90
28654;DHT22;24320;56.980;24.336;2022-09-12T03:25:58;10.20;99.90
28654;DHT22;24320;56.980;24.336;2022-09-12T03:28:25;10.20;99.90
28654;DHT22;24320;56.980;24.336;2022-09-12T03:30:53;10.20;99.90
28654;DHT22;24320;56.980;24.336;2022-09-12T03:33:26;10.20;99.90
28654;DHT22;24320;56.980;24.336;2022-09-12T03:35:56;10.20;99.90
28654;DHT22;24320;56.980;24.336;2022-09-12T03:38:23;10.20;99.90
28654;DHT22;24320;56.980;24.336;2022-09-12T03:40:50;10.20;99.90
28654;DHT22;24320;56.980;24.336;2022-09-12T03:43:20;10.20;99.90
28654;DHT22;24320;56.980;24.336;2022-09-12T03:45:50;10.10;99.90
28654;DHT22;24320;56.980;24.336;2022-09-12T03:48:20;10.10;99.90
28654;DHT22;24320;56.980;24.336;2022-09-12T03:50:46;10.20;99.90
28654;DHT22;24320;56.980;24.336;2022-09-12T03:53:13;10.20;99.90
28654;DHT22;24320;56.980;24.336;2022-09-12T03:55:43;10.10;99.90
28654;DHT22;24320;56.980;24.336;2022-09-12T03:58:10;10.20;99.90
28654;DHT22;24320;56.980;24.336;2022-09-12T04:00:37;10.10;99.90
28654;DHT22;24320;56.980;24.336;2022-09-12T04:03:04;10.20;99.90
28654;DHT22;24320;56.980;24.336;2022-09-12T04:05:31;10.10;99.90
28654;DHT22;24320;56.980;24.336;2022-09-12T04:07:58;10.10;99.90
28654;DHT22;24320;56.980;24.336;2022-09-12T04:10:28;10.10;99.90
28654;DHT22;24320;56.980;24.336;2022-09-12T04:12:55;10.10;99.90
28654;DHT22;24320;56.980;24.336;2022-09-12T04:15:22;10.10;99.90
28654;DHT22;24320;56.980;24.336;2022-09-12T04:17:49;10.10;99.90
28654;DHT22;24320;56.980;24.336;2022-09-12T04:20:15;10.10;99.90
28654;DHT22;24320;56.980;24.336;2022-09-12T04:22:42;10.20;99.90
28654;DHT22;24320;56.980;24.336;2022-09-12T04:25:09;10.20;99.90
28654;DHT22;24320;56.980;24.336;2022-09-12T04:27:37;10.20;99.90
28654;DHT22;24320;56.980;24.336;2022-09-12T04:30:09;10.20;99.90
28654;DHT22;24320;56.980;24.336;2022-09-12T04:32:36;10.20;99.90
28654;DHT22;24320;56.980;24.336;2022-09-12T04:35:04;10.20;99.90
28654;DHT22;24320;56.980;24.336;2022-09-12T04:37:31;10.30;99.90
28654;DHT22;24320;56.980;24.336;2022-09-12T04:39:57;10.30;99.90
28654;DHT22;24320;56.980;24.336;2022-09-12T04:42:25;10.30;99.90
28654;DHT22;24320;56.980;24.336;2022-09-12T04:44:52;10.20;99.90
28654;DHT22;24320;56.980;24.336;2022-09-12T04:47:24;10.30;99.90
28654;DHT22;24320;56.980;24.336;2022-09-12T04:49:51;10.30;99.90
28654;DHT22;24320;56.980;24.336;2022-09-12T04:52:18;10.30;99.90
28654;DHT22;24320;56.980;24.336;2022-09-12T04:54:45;10.30;99.90
28654;DHT22;24320;56.980;24.336;2022-09-12T04:57:12;10.30;99.90
28654;DHT22;24320;56.980;24.336;2022-09-12T04:59:39;10.40;99.90
28654;DHT22;24320;56.980;24.336;2022-09-12T05:02:06;10.40;99.90
28654;DHT22;24320;56.980;24.336;2022-09-12T05:04:34;10.40;99.90
28654;DHT22;24320;56.980;24.336;2022-09-12T05:07:01;10.40;99.90
28654;DHT22;24320;56.980;24.336;2022-09-12T05:09:28;10.50;99.90
28654;DHT22;24320;56.980;24.336;2022-09-12T05:11:56;10.50;99.90
28654;DHT22;24320;56.980;24.336;2022-09-12T05:14:30;10.50;99.90
28654;DHT22;24320;56.980;24.336;2022-09-12T05:16:58;10.50;99.90
28654;DHT22;24320;56.980;24.336;2022-09-12T05:19:28;10.50;99.90
28654;DHT22;24320;56.980;24.336;2022-09-12T05:21:56;10.50;99.90
28654;DHT22;24320;56.980;24.336;2022-09-12T05:24:23;10.50;99.90
28654;DHT22;24320;56.980;24.336;2022-09-12T05:26:50;10.50;99.90
28654;DHT22;24320;56.980;24.336;2022-09-12T05:29:17;10.50;99.90
28654;DHT22;24320;56.980;24.336;2022-09-12T05:31:44;10.50;99.90
28654;DHT22;24320;56.980;24.336;2022-09-12T05:34:11;10.50;99.90
28654;DHT22;24320;56.980;24.336;2022-09-12T05:36:38;10.50;99.90
28654;DHT22;24320;56.980;24.336;2022-09-12T05:39:05;10.50;99.90
28654;DHT22;24320;56.980;24.336;2022-09-12T05:41:33;10.50;99.90
28654;DHT22;24320;56.980;24.336;2022-09-12T05:44:03;10.50;99.90
28654;DHT22;24320;56.980;24.336;2022-09-12T05:46:35;10.60;99.90
28654;DHT22;24320;56.980;24.336;2022-09-12T05:49:05;10.70;99.90
28654;DHT22;24320;56.980;24.336;2022-09-12T05:51:35;10.70;99.90
28654;DHT22;24320;56.980;24.336;2022-09-12T05:54:05;10.70;99.90
28654;DHT22;24320;56.980;24.336;2022-09-12T05:56:37;10.70;99.90
28654;DHT22;24320;56.980;24.336;2022-09-12T05:59:15;10.80;99.90
28654;DHT22;24320;56.980;24.336;2022-09-12T06:01:42;10.90;99.90
28654;DHT22;24320;56.980;24.336;2022-09-12T06:04:10;11.10;99.90
28654;DHT22;24320;56.980;24.336;2022-09-12T06:06:40;11.20;99.90
28654;DHT22;24320;56.980;24.336;2022-09-12T06:09:08;11.30;99.90
28654;DHT22;24320;56.980;24.336;2022-09-12T06:11:37;11.30;99.90
28654;DHT22;24320;56.980;24.336;2022-09-12T06:14:07;11.30;99.90
28654;DHT22;24320;56.980;24.336;2022-09-12T06:16:34;11.30;99.90
28654;DHT22;24320;56.980;24.336;2022-09-12T06:19:05;11.30;99.90
28654;DHT22;24320;56.980;24.336;2022-09-12T06:21:33;11.30;99.90
28654;DHT22;24320;56.980;24.336;2022-09-12T06:24:01;11.30;99.90
28654;DHT22;24320;56.980;24.336;2022-09-12T06:26:28;11.40;99.90
28654;DHT22;24320;56.980;24.336;2022-09-12T06:28:57;11.40;99.90
28654;DHT22;24320;56.980;24.336;2022-09-12T06:31:27;11.20;99.90
28654;DHT22;24320;56.980;24.336;2022-09-12T06:33:55;11.20;99.90
28654;DHT22;24320;56.980;24.336;2022-09-12T06:36:25;11.10;99.90
28654;DHT22;24320;56.980;24.336;2022-09-12T06:38:54;11.10;99.90
28654;DHT22;24320;56.980;24.336;2022-09-12T06:41:23;11.00;99.90
28654;DHT22;24320;56.980;24.336;2022-09-12T06:43:51;11.10;99.90
28654;DHT22;24320;56.980;24.336;2022-09-12T06:46:19;11.20;99.90
28654;DHT22;24320;56.980;24.336;2022-09-12T06:48:46;11.30;99.90
28654;DHT22;24320;56.980;24.336;2022-09-12T06:51:15;11.50;99.90
28654;DHT22;24320;56.980;24.336;2022-09-12T06:53:43;11.70;99.90
28654;DHT22;24320;56.980;24.336;2022-09-12T06:56:18;11.90;99.90
28654;DHT22;24320;56.980;24.336;2022-09-12T06:58:46;12.00;99.90
28654;DHT22;24320;56.980;24.336;2022-09-12T07:03:52;12.30;99.90
28654;DHT22;24320;56.980;24.336;2022-09-12T07:06:22;12.30;99.90
28654;DHT22;24320;56.980;24.336;2022-09-12T07:08:50;12.20;99.90
28654;DHT22;24320;56.980;24.336;2022-09-12T07:11:22;12.20;99.90
28654;DHT22;24320;56.980;24.336;2022-09-12T07:13:54;12.10;99.90
28654;DHT22;24320;56.980;24.336;2022-09-12T07:16:22;12.10;99.90
28654;DHT22;24320;56.980;24.336;2022-09-12T07:18:51;12.00;99.90
28654;DHT22;24320;56.980;24.336;2022-09-12T07:21:18;11.90;99.90
28654;DHT22;24320;56.980;24.336;2022-09-12T07:23:46;11.90;99.90
28654;DHT22;24320;56.980;24.336;2022-09-12T07:26:15;11.80;99.90
28654;DHT22;24320;56.980;24.336;2022-09-12T07:28:42;11.80;99.90
28654;DHT22;24320;56.980;24.336;2022-09-12T07:31:12;12.00;99.90
28654;DHT22;24320;56.980;24.336;2022-09-12T07:33:40;12.40;99.90
28654;DHT22;24320;56.980;24.336;2022-09-12T07:36:12;12.90;99.90
28654;DHT22;24320;56.980;24.336;2022-09-12T07:38:40;13.20;99.90
28654;DHT22;24320;56.980;24.336;2022-09-12T07:43:41;13.30;99.90
28654;DHT22;24320;56.980;24.336;2022-09-12T07:46:09;13.20;99.90
28654;DHT22;24320;56.980;24.336;2022-09-12T07:48:37;13.10;99.90
28654;DHT22;24320;56.980;24.336;2022-09-12T07:51:06;13.10;99.90
28654;DHT22;24320;56.980;24.336;2022-09-12T07:53:40;13.00;99.90
28654;DHT22;24320;56.980;24.336;2022-09-12T07:56:10;13.00;99.90
28654;DHT22;24320;56.980;24.336;2022-09-12T07:58:38;12.90;99.90
28654;DHT22;24320;56.980;24.336;2022-09-12T08:01:11;12.80;99.90
28654;DHT22;24320;56.980;24.336;2022-09-12T08:03:40;12.70;99.90
28654;DHT22;24320;56.980;24.336;2022-09-12T08:06:10;12.70;99.90
28654;DHT22;24320;56.980;24.336;2022-09-12T08:08:37;12.60;99.90
28654;DHT22;24320;56.980;24.336;2022-09-12T08:11:12;12.50;99.90
28654;DHT22;24320;56.980;24.336;2022-09-12T08:13:40;12.40;99.90
28654;DHT22;24320;56.980;24.336;2022-09-12T08:16:13;12.30;99.90
28654;DHT22;24320;56.980;24.336;2022-09-12T08:18:40;12.30;99.90
28654;DHT22;24320;56.980;24.336;2022-09-12T08:21:12;12.30;99.90
28654;DHT22;24320;56.980;24.336;2022-09-12T08:23:40;12.40;99.90
28654;DHT22;24320;56.980;24.336;2022-09-12T08:26:08;12.50;99.90
28654;DHT22;24320;56.980;24.336;2022-09-12T08:28:36;12.60;99.90
28654;DHT22;24320;56.980;24.336;2022-09-12T08:31:14;12.50;99.90
28654;DHT22;24320;56.980;24.336;2022-09-12T08:33:55;12.60;99.90
28654;DHT22;24320;56.980;24.336;2022-09-12T08:36:25;12.70;99.90
28654;DHT22;24320;56.980;24.336;2022-09-12T08:38:57;12.80;99.90
28654;DHT22;24320;56.980;24.336;2022-09-12T08:41:29;12.90;99.90
28654;DHT22;24320;56.980;24.336;2022-09-12T08:44:14;13.00;99.90
28654;DHT22;24320;56.980;24.336;2022-09-12T08:55:28;12.50;99.90
28654;DHT22;24320;56.980;24.336;2022-09-12T08:58:01;12.50;99.90
28654;DHT22;24320;56.980;24.336;2022-09-12T09:00:48;12.50;99.90
28654;DHT22;24320;56.980;24.336;2022-09-12T09:08:44;12.50;99.90
28654;DHT22;24320;56.980;24.336;2022-09-12T09:16:45;12.70;99.90
28654;DHT22;24320;56.980;24.336;2022-09-12T09:24:37;12.90;99.90
28654;DHT22;24320;56.980;24.336;2022-09-12T09:27:30;13.00;99.90
28654;DHT22;24320;56.980;24.336;2022-09-12T09:30:15;13.20;99.90
28654;DHT22;24320;56.980;24.336;2022-09-12T09:32:51;13.30;99.90
28654;DHT22;24320;56.980;24.336;2022-09-12T09:35:21;13.40;99.90
28654;DHT22;24320;56.980;24.336;2022-09-12T09:38:24;13.40;99.90
28654;DHT22;24320;56.980;24.336;2022-09-12T09:43:37;13.20;99.90
28654;DHT22;24320;56.980;24.336;2022-09-12T09:46:05;13.20;99.90
28654;DHT22;24320;56.980;24.336;2022-09-12T09:48:46;13.30;99.90
28654;DHT22;24320;56.980;24.336;2022-09-12T09:51:18;13.50;99.90
28654;DHT22;24320;56.980;24.336;2022-09-12T09:54:08;13.70;99.90
28654;DHT22;24320;56.980;24.336;2022-09-12T09:56:40;13.90;99.90
28654;DHT22;24320;56.980;24.336;2022-09-12T09:59:10;14.10;99.90
28654;DHT22;24320;56.980;24.336;2022-09-12T10:01:48;14.40;99.90
28654;DHT22;24320;56.980;24.336;2022-09-12T10:04:27;14.60;99.90
28654;DHT22;24320;56.980;24.336;2022-09-12T10:07:00;14.60;99.90
28654;DHT22;24320;56.980;24.336;2022-09-12T10:09:29;14.60;99.90
28654;DHT22;24320;56.980;24.336;2022-09-12T10:12:01;14.40;99.90
28654;DHT22;24320;56.980;24.336;2022-09-12T10:15:02;14.30;99.90
28654;DHT22;24320;56.980;24.336;2022-09-12T10:17:40;14.00;99.90
28654;DHT22;24320;56.980;24.336;2022-09-12T10:20:38;13.70;99.90
28654;DHT22;24320;56.980;24.336;2022-09-12T10:25:52;13.50;99.90
28654;DHT22;24320;56.980;24.336;2022-09-12T10:28:23;13.40;99.90
28654;DHT22;24320;56.980;24.336;2022-09-12T10:30:53;13.40;99.90
28654;DHT22;24320;56.980;24.336;2022-09-12T10:33:23;13.50;99.90
28654;DHT22;24320;56.980;24.336;2022-09-12T10:36:14;13.60;99.90
28654;DHT22;24320;56.980;24.336;2022-09-12T10:38:48;13.80;99.90
28654;DHT22;24320;56.980;24.336;2022-09-12T10:41:17;13.90;99.90
28654;DHT22;24320;56.980;24.336;2022-09-12T10:43:44;14.00;99.90
28654;DHT22;24320;56.980;24.336;2022-09-12T10:48:43;14.20;99.90
28654;DHT22;24320;56.980;24.336;2022-09-12T10:53:51;14.00;99.90
28654;DHT22;24320;56.980;24.336;2022-09-12T11:02:40;13.80;99.90
28654;DHT22;24320;56.980;24.336;2022-09-12T11:11:19;14.20;99.90
28654;DHT22;24320;56.980;24.336;2022-09-12T11:14:12;14.30;99.90
28654;DHT22;24320;56.980;24.336;2022-09-12T11:17:15;14.60;99.90
28654;DHT22;24320;56.980;24.336;2022-09-12T11:22:43;14.70;99.90
28654;DHT22;24320;56.980;24.336;2022-09-12T11:25:43;14.60;99.90
28654;DHT22;24320;56.980;24.336;2022-09-12T11:31:16;14.40;99.90
28654;DHT22;24320;56.980;24.336;2022-09-12T11:33:49;14.30;99.90
28654;DHT22;24320;56.980;24.336;2022-09-12T11:39:39;14.20;99.90
28654;DHT22;24320;56.980;24.336;2022-09-12T11:42:17;14.00;99.90
28654;DHT22;24320;56.980;24.336;2022-09-12T11:44:48;13.90;99.90
28654;DHT22;24320;56.980;24.336;2022-09-12T11:47:17;13.70;99.90
28654;DHT22;24320;56.980;24.336;2022-09-12T11:49:50;13.60;99.90
28654;DHT22;24320;56.980;24.336;2022-09-12T11:52:21;13.50;99.90
28654;DHT22;24320;56.980;24.336;2022-09-12T11:55:15;13.40;99.90
28654;DHT22;24320;56.980;24.336;2022-09-12T11:57:44;13.40;99.90
28654;DHT22;24320;56.980;24.336;2022-09-12T12:00:25;13.50;99.90
28654;DHT22;24320;56.980;24.336;2022-09-12T12:05:49;13.60;99.90
28654;DHT22;24320;56.980;24.336;2022-09-12T12:08:24;13.70;99.90
28654;DHT22;24320;56.980;24.336;2022-09-12T12:10:57;13.80;99.90
28654;DHT22;24320;56.980;24.336;2022-09-12T12:16:11;13.90;99.90
28654;DHT22;24320;56.980;24.336;2022-09-12T12:18:40;14.00;99.90
28654;DHT22;24320;56.980;24.336;2022-09-12T12:34:41;13.40;99.90
28654;DHT22;24320;56.980;24.336;2022-09-12T12:48:06;13.10;99.90
28654;DHT22;24320;56.980;24.336;2022-09-12T12:50:34;13.10;99.90
28654;DHT22;24320;56.980;24.336;2022-09-12T12:55:34;13.20;99.90
28654;DHT22;24320;56.980;24.336;2022-09-12T12:58:05;13.30;99.90
28654;DHT22;24320;56.980;24.336;2022-09-12T13:00:38;13.30;99.90
28654;DHT22;24320;56.980;24.336;2022-09-12T13:05:44;13.40;99.90
28654;DHT22;24320;56.980;24.336;2022-09-12T13:10:50;13.50;99.90
28654;DHT22;24320;56.980;24.336;2022-09-12T13:13:29;13.50;99.90
28654;DHT22;24320;56.980;24.336;2022-09-12T13:15:57;13.50;99.90
28654;DHT22;24320;56.980;24.336;2022-09-12T13:18:25;13.60;99.90
28654;DHT22;24320;56.980;24.336;2022-09-12T13:21:07;13.60;99.90
28654;DHT22;24320;56.980;24.336;2022-09-12T13:23:35;13.60;99.90
28654;DHT22;24320;56.980;24.336;2022-09-12T13:26:02;13.60;99.90
28654;DHT22;24320;56.980;24.336;2022-09-12T13:28:35;13.60;99.90
28654;DHT22;24320;56.980;24.336;2022-09-12T13:31:20;13.70;99.90
28654;DHT22;24320;56.980;24.336;2022-09-12T13:33:58;13.80;99.90
28654;DHT22;24320;56.980;24.336;2022-09-12T13:45:05;14.20;99.90
28654;DHT22;24320;56.980;24.336;2022-09-12T13:47:40;14.30;99.90
28654;DHT22;24320;56.980;24.336;2022-09-12T13:50:19;14.30;99.90
28654;DHT22;24320;56.980;24.336;2022-09-12T13:52:56;14.20;99.90
28654;DHT22;24320;56.980;24.336;2022-09-12T13:55:35;14.20;99.90
28654;DHT22;24320;56.980;24.336;2022-09-12T13:58:18;14.20;99.90
28654;DHT22;24320;56.980;24.336;2022-09-12T14:00:45;14.20;99.90
28654;DHT22;24320;56.980;24.336;2022-09-12T14:03:31;14.00;99.90
28654;DHT22;24320;56.980;24.336;2022-09-12T14:06:23;13.80;99.90
28654;DHT22;24320;56.980;24.336;2022-09-12T14:08:53;13.60;99.90
28654;DHT22;24320;56.980;24.336;2022-09-12T14:11:26;13.50;99.90
28654;DHT22;24320;56.980;24.336;2022-09-12T14:13:54;13.40;99.90
28654;DHT22;24320;56.980;24.336;2022-09-12T14:16:22;13.40;99.90
28654;DHT22;24320;56.980;24.336;2022-09-12T14:18:50;13.30;99.90
28654;DHT22;24320;56.980;24.336;2022-09-12T14:26:28;13.10;99.90
28654;DHT22;24320;56.980;24.336;2022-09-12T14:28:58;13.10;99.90
28654;DHT22;24320;56.980;24.336;2022-09-12T14:31:30;13.10;99.90
28654;DHT22;24320;56.980;24.336;2022-09-12T14:34:10;13.10;99.90
28654;DHT22;24320;56.980;24.336;2022-09-12T14:36:47;13.00;99.90
28654;DHT22;24320;56.980;24.336;2022-09-12T14:39:28;13.00;99.90
28654;DHT22;24320;56.980;24.336;2022-09-12T14:42:12;13.00;99.90
28654;DHT22;24320;56.980;24.336;2022-09-12T14:44:42;13.00;99.90
28654;DHT22;24320;56.980;24.336;2022-09-12T14:47:21;13.00;99.90
28654;DHT22;24320;56.980;24.336;2022-09-12T14:49:49;13.00;99.90
28654;DHT22;24320;56.980;24.336;2022-09-12T14:52:37;13.00;99.90
28654;DHT22;24320;56.980;24.336;2022-09-12T14:57:42;13.00;99.90
28654;DHT22;24320;56.980;24.336;2022-09-12T15:00:17;13.00;99.90
28654;DHT22;24320;56.980;24.336;2022-09-12T15:02:47;12.90;99.90
28654;DHT22;24320;56.980;24.336;2022-09-12T15:05:25;12.90;99.90
28654;DHT22;24320;56.980;24.336;2022-09-12T15:07:53;12.90;99.90
28654;DHT22;24320;56.980;24.336;2022-09-12T15:10:27;12.90;99.90
28654;DHT22;24320;56.980;24.336;2022-09-12T15:15:52;12.80;99.90
28654;DHT22;24320;56.980;24.336;2022-09-12T15:18:20;12.70;99.90
28654;DHT22;24320;56.980;24.336;2022-09-12T15:20:50;12.70;99.90
28654;DHT22;24320;56.980;24.336;2022-09-12T15:25:52;12.70;99.90
28654;DHT22;24320;56.980;24.336;2022-09-12T15:28:21;12.70;99.90
28654;DHT22;24320;56.980;24.336;2022-09-12T15:30:50;12.60;99.90
28654;DHT22;24320;56.980;24.336;2022-09-12T15:33:20;12.70;99.90
28654;DHT22;24320;56.980;24.336;2022-09-12T15:38:37;12.60;99.90
28654;DHT22;24320;56.980;24.336;2022-09-12T15:41:15;12.60;99.90
28654;DHT22;24320;56.980;24.336;2022-09-12T15:43:43;12.60;99.90
28654;DHT22;24320;56.980;24.336;2022-09-12T15:46:12;12.60;99.90
28654;DHT22;24320;56.980;24.336;2022-09-12T15:48:39;12.60;99.90
28654;DHT22;24320;56.980;24.336;2022-09-12T15:51:11;12.60;99.90
28654;DHT22;24320;56.980;24.336;2022-09-12T15:53:41;12.50;99.90
28654;DHT22;24320;56.980;24.336;2022-09-12T15:56:09;12.50;99.90
28654;DHT22;24320;56.980;24.336;2022-09-12T15:58:36;12.50;99.90
28654;DHT22;24320;56.980;24.336;2022-09-12T16:01:20;12.60;99.90
28654;DHT22;24320;56.980;24.336;2022-09-12T16:03:48;12.60;99.90
28654;DHT22;24320;56.980;24.336;2022-09-12T16:06:15;12.50;99.90
28654;DHT22;24320;56.980;24.336;2022-09-12T16:08:46;12.50;99.90
28654;DHT22;24320;56.980;24.336;2022-09-12T16:11:24;12.50;99.90
28654;DHT22;24320;56.980;24.336;2022-09-12T16:13:52;12.40;99.90
28654;DHT22;24320;56.980;24.336;2022-09-12T16:16:20;12.40;99.90
28654;DHT22;24320;56.980;24.336;2022-09-12T16:18:52;12.40;99.90
28654;DHT22;24320;56.980;24.336;2022-09-12T16:21:21;12.30;99.90
28654;DHT22;24320;56.980;24.336;2022-09-12T16:24:04;12.40;99.90
28654;DHT22;24320;56.980;24.336;2022-09-12T16:26:31;12.30;99.90
28654;DHT22;24320;56.980;24.336;2022-09-12T16:29:01;12.30;99.90
28654;DHT22;24320;56.980;24.336;2022-09-12T16:31:28;12.30;99.90
28654;DHT22;24320;56.980;24.336;2022-09-12T16:33:55;12.20;99.90
28654;DHT22;24320;56.980;24.336;2022-09-12T16:36:30;12.20;99.90
28654;DHT22;24320;56.980;24.336;2022-09-12T16:38:56;12.10;99.90
28654;DHT22;24320;56.980;24.336;2022-09-12T16:41:24;12.00;99.90
28654;DHT22;24320;56.980;24.336;2022-09-12T16:44:02;12.00;99.90
28654;DHT22;24320;56.980;24.336;2022-09-12T16:46:29;12.00;99.90
28654;DHT22;24320;56.980;24.336;2022-09-12T16:49:00;11.90;99.90
28654;DHT22;24320;56.980;24.336;2022-09-12T16:51:33;11.80;99.90
28654;DHT22;24320;56.980;24.336;2022-09-12T16:54:03;11.80;99.90
28654;DHT22;24320;56.980;24.336;2022-09-12T16:56:30;11.80;99.90
28654;DHT22;24320;56.980;24.336;2022-09-12T16:59:06;11.80;99.90
28654;DHT22;24320;56.980;24.336;2022-09-12T17:01:56;11.80;99.90
28654;DHT22;24320;56.980;24.336;2022-09-12T17:04:23;11.70;99.90
28654;DHT22;24320;56.980;24.336;2022-09-12T17:06:50;11.70;99.90
28654;DHT22;24320;56.980;24.336;2022-09-12T17:09:17;11.60;99.90
28654;DHT22;24320;56.980;24.336;2022-09-12T17:11:45;11.60;99.90
28654;DHT22;24320;56.980;24.336;2022-09-12T17:14:16;11.60;99.90
28654;DHT22;24320;56.980;24.336;2022-09-12T17:16:44;11.50;99.90
28654;DHT22;24320;56.980;24.336;2022-09-12T17:19:22;11.50;99.90
28654;DHT22;24320;56.980;24.336;2022-09-12T17:21:52;11.40;99.90
28654;DHT22;24320;56.980;24.336;2022-09-12T17:24:19;11.40;99.90
28654;DHT22;24320;56.980;24.336;2022-09-12T17:26:46;11.30;99.90
28654;DHT22;24320;56.980;24.336;2022-09-12T17:29:14;11.30;99.90
28654;DHT22;24320;56.980;24.336;2022-09-12T17:31:42;11.30;99.90
28654;DHT22;24320;56.980;24.336;2022-09-12T17:34:10;11.20;99.90
28654;DHT22;24320;56.980;24.336;2022-09-12T17:36:41;11.20;99.90
28654;DHT22;24320;56.980;24.336;2022-09-12T17:39:11;11.20;99.90
28654;DHT22;24320;56.980;24.336;2022-09-12T17:41:39;11.10;99.90
28654;DHT22;24320;56.980;24.336;2022-09-12T17:44:11;11.10;99.90
28654;DHT22;24320;56.980;24.336;2022-09-12T17:46:38;11.10;99.90
28654;DHT22;24320;56.980;24.336;2022-09-12T17:49:09;11.10;99.90
28654;DHT22;24320;56.980;24.336;2022-09-12T17:51:37;11.10;99.90
28654;DHT22;24320;56.980;24.336;2022-09-12T17:54:08;11.10;99.90
28654;DHT22;24320;56.980;24.336;2022-09-12T17:56:35;11.10;99.90
28654;DHT22;24320;56.980;24.336;2022-09-12T17:59:05;11.10;99.90
28654;DHT22;24320;56.980;24.336;2022-09-12T18:01:32;11.10;99.90
28654;DHT22;24320;56.980;24.336;2022-09-12T18:04:18;11.10;99.90
28654;DHT22;24320;56.980;24.336;2022-09-12T18:06:46;11.00;99.90
28654;DHT22;24320;56.980;24.336;2022-09-12T18:09:20;11.00;99.90
28654;DHT22;24320;56.980;24.336;2022-09-12T18:11:48;11.00;99.90
28654;DHT22;24320;56.980;24.336;2022-09-12T18:14:16;11.00;99.90
28654;DHT22;24320;56.980;24.336;2022-09-12T18:16:43;11.00;99.90
28654;DHT22;24320;56.980;24.336;2022-09-12T18:19:11;10.90;99.90
28654;DHT22;24320;56.980;24.336;2022-09-12T18:21:38;10.90;99.90
28654;DHT22;24320;56.980;24.336;2022-09-12T18:24:05;10.90;99.90
28654;DHT22;24320;56.980;24.336;2022-09-12T18:26:33;10.90;99.90
28654;DHT22;24320;56.980;24.336;2022-09-12T18:29:00;10.90;99.90
28654;DHT22;24320;56.980;24.336;2022-09-12T18:31:28;11.00;99.90
28654;DHT22;24320;56.980;24.336;2022-09-12T18:33:56;11.00;99.90
28654;DHT22;24320;56.980;24.336;2022-09-12T18:36:26;11.00;99.90